DFW weather

Public forecast

Using degrees Fahrenheit for public forecast. Weather courtesy of forecast.io.

Current aviation weather report (METAR) for Dallas Fort Worth International Airport

Retrieved 2020/08/13 07:53 UTC (10 minutes ago):

KDFW 130753Z 17010KT 10SM FEW300 29/22 A2989 RMK AO2 SLP110 T02940217

Aviation forecast (TAF) for Dallas Fort Worth International Airport

Retrieved 2020/08/13 06:22 UTC (2 hours ago):

TAF KDFW 130520Z 1306/1412 16012KT P6SM FEW300